Wetter- und Hausseite der Bittkau's aus Magdeburg Ottersleben

Hier werden aktuelle Daten aus einer privaten Wetterstation und

lokale Wettervorhersagen bereitgestellt




Thunder radar more information blitzortung!


Rain radar more information rain snow radar



Es liegt ein Kommunikationsproblem vor. Gehen Sie direkt zur Website Meteoalarm : www.meteoalarm.eu und überprüfen Sie die Wetterwarnungen..

METAR-Meldungen aus der Umgebung

   
EDDB - Berlin
Aktualisierung: 05.02.2023 12:20
Klar  
Klar  
   Wind: SSO 11.1 km/h
Wind: SSO 11.1 km/h
Temperatur: 0°C
Gefühlt: -3°C
Taupunkt: -5°C
Luftfeuchte: 69%
Luftdruck: 1037 hPa
Sichtbarkeit: More than 10 km
Bewölkung: Klar
EDDB 051120Z AUTO 15006KT CAVOK M00/M05 Q1037 NOSIG
EDDP - Leipzig
Aktualisierung: 05.02.2023 11:50
Klar  
Klar  
   Wind: OSO 16.7 km/h
Wind: OSO 16.7 km/h
Temperatur: 1°C
Gefühlt: -3°C
Taupunkt: -3°C
Luftfeuchte: 75%
Luftdruck: 1035 hPa
Sichtbarkeit: More than 10 km
Bewölkung: Klar
EDDP 051050Z AUTO 12009KT 010V140 CAVOK 01/M03 Q1035 NOSIG
EDDC - Dresden
Aktualisierung: 05.02.2023 12:20
Klar  
Klar  
   Wind: SO 11.1 km/h
Wind: SO 11.1 km/h
Temperatur: 0°C
Gefühlt: -3°C
Taupunkt: -7°C
Luftfeuchte: 60%
Luftdruck: 1036 hPa
Sichtbarkeit: More than 10 km
Bewölkung: Klar
EDDC 051120Z AUTO 14006KT CAVOK M00/M07 Q1036 NOSIG
EDDE - Erfurt
Aktualisierung: 05.02.2023 12:20
Leichter Schneefall, Bewölkt  
Leichter Schneefall, Bewölkt  
   Wind: Osten 5.6 km/h
Wind: Osten 5.6 km/h
Temperatur: -1°C
Gefühlt: -3°C
Taupunkt: -2°C
Luftfeuchte: 93%
Luftdruck: 1033 hPa
Bewölkt: Bewölkt
Sichtbarkeit: 9 km
Bewölkung: leicht bewölkt 518.2 m,
Bewölkt 1219.2 m
EDDE 051120Z AUTO 10003KT 070V130 9000 -SN FEW017 OVC040 M01/M02 Q1033 TEMPO 3500 SN BKN014
EDVE - Braunschweig
Aktualisierung: 05.02.2023 12:20
Klar  
Klar  
   Wind: Osten 7.4 km/h
Wind: Osten 7.4 km/h
Temperatur: 2°C
Gefühlt: 0°C
Taupunkt: -1°C
Luftfeuchte: 81%
Luftdruck: 1034 hPa
Sichtbarkeit: More than 10 km
Bewölkung: Klar
EDVE 051120Z 09004KT CAVOK 02/M01 Q1034
EDDV - Hannover
Aktualisierung: 05.02.2023 12:20
Leichter Niederschlag möglich, Bewölkt  
Leichter Niederschlag möglich, Bewölkt  
   Wind: Osten 7.4 km/h
Wind: Osten 7.4 km/h
Temperatur: 2°C
Gefühlt: 0°C
Taupunkt: 0°C
Luftfeuchte: 87%
Luftdruck: 1034 hPa
Bewölkt: Bewölkt
Sichtbarkeit: More than 10 km
Bewölkung: leicht bewölkt 182.9 m,
Bewölkt 457.2 m
EDDV 051120Z AUTO 10004KT 080V140 9999 -RA FEW006 OVC015 02/00 Q1034 TEMPO 4500 RADZ BKN012
EDDE - Schwerin
Aktualisierung: 05.02.2023 12:20
Leichter Schneefall, Bewölkt  
Leichter Schneefall, Bewölkt  
   Wind: Osten 5.6 km/h
Wind: Osten 5.6 km/h
Temperatur: -1°C
Gefühlt: -3°C
Taupunkt: -2°C
Luftfeuchte: 93%
Luftdruck: 1033 hPa
Bewölkt: Bewölkt
Sichtbarkeit: 9 km
Bewölkung: leicht bewölkt 518.2 m,
Bewölkt 1219.2 m
EDDE 051120Z AUTO 10003KT 070V130 9000 -SN FEW017 OVC040 M01/M02 Q1033 TEMPO 3500 SN BKN014
EDHI - Hamburg
Aktualisierung: 05.02.2023 12:20
Bewölkt  
Bewölkt  
   Wind: Osten 5.6 km/h
Wind: Osten 5.6 km/h
Temperatur: 1°C
Gefühlt: -1°C
Taupunkt: -2°C
Luftfeuchte: 81%
Luftdruck: 1035 hPa
Bewölkt: Bewölkt
Sichtbarkeit: 9 km
Bewölkung: Teilweise bewölkt 914.4 m,
Stark bewölkt 1158.2 m,
Bewölkt 1920.2 m
EDHI 051120Z AUTO 10003KT 060V150 9000 // SCT030/// BKN038/// OVC063/// 01/M02 Q1035
EDDK - Köln-Bonn
Aktualisierung: 05.02.2023 12:20
Leichter Niederschlag möglich, Nebel, Stark bewölkt  
Leichter Niederschlag möglich, Nebel, Stark bewölkt  
   Wind: NNW 18.5 km/h
Wind: NNW 18.5 km/h
Temperatur: 6°C
Gefühlt: 3°C
Taupunkt: 5°C
Luftfeuchte: 93%
Luftdruck: 1035 hPa
Bewölkt: Stark bewölkt
Sichtbarkeit: 5 km
Bewölkung: Stark bewölkt 243.8 m,
Stark bewölkt 396.2 m
EDDK 051120Z AUTO 33010KT 4500 -RA BR BKN008 BKN013 06/05 Q1035 TEMPO RADZ

Script entwickelt von  Saratoga-weather.org Angepasst für das Template von  Weerstation Leuven

Sie finden die Wetterinfo auch auf:

Wetternetzwerk Deutschland

Weather Underground

Regionalwetter-SA

wetter.com

wxforum.de

Genutzte Hardware, Software und WEB Anbieter:

Wetterstation
Ventus W928-Ultimate

Wetterprogramm
Weather Display

WetterComputer
RaspberryPI

Anbieter

Ventus W928-Ultimate

Weather Display

RaspberryPI